Terminal Aerodrome Forecast
Issued by NWS Cleveland, OH

Home | Current Version | Previous Version | Text Only | Print | Product List | Glossary On
Versions: 1 2 3 4 5 6 7 8 9 10 11 12 13 14 15 16 17 18 19
000
FTUS41 KCLE 251735
TAFYNG
TAF
KYNG 251735Z 2518/2618 03007KT P6SM SCT020 BKN035
     FM252000 03006KT P6SM SCT040
     FM260200 VRB03KT P6SM SKC
     FM261000 VRB03KT 5SM BR SKC
     FM261300 17004KT P6SM SCT250=

USA.gov is the U.S. government's official web portal to all federal, state and local government web resources and services.